Time;durP1;ratioP1;P1;durP2;ratioP2;P2;SDS_P1;SDS_P2;PMS_P1;PMS_P2;Temp;Humidity;BMP_temperature;BMP_pressure;BME280_temperature;BME280_humidity;BME280_pressure;Samples;Min_cycle;Max_cycle;Signal;HPM_P1;HPM_P2
2023/10/11 00:02:26;;;;;;;12.75;7.18;;;17.10;99.90;;;;;;5057316;28;20555;-57
2023/10/11 00:04:51;;;;;;;13.70;6.47;;;17.10;99.90;;;;;;5058068;28;20507;-56
2023/10/11 00:07:18;;;;;;;16.70;7.22;;;17.10;99.90;;;;;;5055765;28;20131;-57
2023/10/11 00:09:44;;;;;;;10.93;6.80;;;17.10;99.90;;;;;;5056709;28;20123;-57
2023/10/11 00:12:11;;;;;;;13.07;6.90;;;17.00;99.90;;;;;;5055713;28;20131;-56
2023/10/11 00:14:42;;;;;;;8.88;6.28;;;17.10;99.90;;;;;;5054638;28;20041;-57
2023/10/11 00:17:11;;;;;;;11.55;6.53;;;17.00;99.90;;;;;;5059005;28;20033;-57
2023/10/11 00:19:39;;;;;;;11.68;7.00;;;17.00;99.90;;;;;;5050241;28;20033;-57
2023/10/11 00:22:05;;;;;;;8.15;6.35;;;17.00;99.90;;;;;;5057776;28;20559;-59
2023/10/11 00:24:32;;;;;;;16.70;7.68;;;17.00;99.90;;;;;;5050571;28;20396;-58
2023/10/11 00:26:57;;;;;;;;;;;17.00;99.90;;;;;;5049776;28;20465;-59
2023/10/11 00:29:23;;;;;;;14.13;6.63;;;17.00;99.90;;;;;;5054549;28;20010;-57
2023/10/11 00:31:52;;;;;;;13.75;6.47;;;17.00;99.90;;;;;;5056888;28;20040;-59
2023/10/11 00:34:18;;;;;;;12.32;7.47;;;16.90;99.90;;;;;;5052079;28;20044;-57
2023/10/11 00:36:45;;;;;;;18.80;8.95;;;16.90;99.90;;;;;;5058461;28;20059;-58
2023/10/11 00:39:17;;;;;;;14.90;6.65;;;16.90;99.90;;;;;;5055244;28;20125;-55
2023/10/11 00:41:47;;;;;;;16.15;7.32;;;16.90;99.90;;;;;;5059572;28;20040;-53
2023/10/11 00:44:16;;;;;;;15.68;7.53;;;16.90;99.90;;;;;;5053235;28;20044;-56
2023/10/11 00:46:59;;;;;;;15.07;6.90;;;16.90;99.90;;;;;;5054464;28;20465;-56
2023/10/11 00:49:35;;;;;;;13.60;7.45;;;16.80;99.90;;;;;;5054629;28;20041;-56
2023/10/11 00:52:06;;;;;;;12.88;7.25;;;16.80;99.90;;;;;;5056704;28;20362;-53
2023/10/11 00:54:43;;;;;;;14.68;7.10;;;16.80;99.90;;;;;;5057832;28;20040;-55
2023/10/11 00:57:12;;;;;;;15.30;7.65;;;16.80;99.90;;;;;;5060052;28;20074;-58
2023/10/11 00:59:39;;;;;;;12.63;8.00;;;16.80;99.90;;;;;;5053778;28;20406;-55
2023/10/11 01:02:06;;;;;;;16.17;8.80;;;16.80;99.90;;;;;;5053367;28;20111;-58
2023/10/11 01:04:37;;;;;;;22.52;10.15;;;16.70;99.90;;;;;;5052587;28;20102;-56
2023/10/11 01:07:03;;;;;;;14.10;7.82;;;16.70;99.90;;;;;;5052123;28;20040;-55
2023/10/11 01:09:29;;;;;;;14.90;8.85;;;16.70;99.90;;;;;;5056950;28;20043;-53
2023/10/11 01:11:54;;;;;;;15.57;8.98;;;16.70;99.90;;;;;;5057684;28;20491;-58
2023/10/11 01:14:23;;;;;;;16.05;8.30;;;16.60;99.90;;;;;;5056447;28;20039;-58
2023/10/11 01:16:51;;;;;;;17.35;7.60;;;16.70;99.90;;;;;;5057049;28;20048;-55
2023/10/11 01:19:18;;;;;;;13.82;7.47;;;16.60;99.90;;;;;;5055035;28;20730;-58
2023/10/11 01:21:53;;;;;;;14.45;9.00;;;16.60;99.90;;;;;;5055034;28;20051;-58
2023/10/11 01:24:19;;;;;;;20.05;9.63;;;16.60;99.90;;;;;;5053640;28;21217;-55
2023/10/11 01:26:45;;;;;;;16.75;9.98;;;16.60;99.90;;;;;;5055429;28;20033;-57
2023/10/11 01:29:11;;;;;;;17.38;8.32;;;16.60;99.90;;;;;;5048468;28;20040;-56
2023/10/11 01:31:40;;;;;;;15.38;8.20;;;16.60;99.90;;;;;;5056506;28;20045;-58
2023/10/11 01:34:05;;;;;;;16.95;8.63;;;16.50;99.90;;;;;;5057636;28;20037;-59
2023/10/11 01:36:31;;;;;;;17.52;8.45;;;16.50;99.90;;;;;;5057586;28;20036;-59
2023/10/11 01:39:03;;;;;;;13.48;8.73;;;16.50;99.90;;;;;;5056202;28;20094;-58
2023/10/11 01:41:28;;;;;;;17.40;7.82;;;16.50;99.90;;;;;;5054079;28;20110;-57
2023/10/11 01:43:55;;;;;;;19.10;9.45;;;16.40;99.90;;;;;;5053568;28;20033;-58
2023/10/11 01:46:27;;;;;;;13.43;8.50;;;16.50;99.90;;;;;;5055301;28;20032;-58
2023/10/11 01:48:59;;;;;;;16.20;9.02;;;16.40;99.90;;;;;;5054965;28;20045;-59
2023/10/11 01:51:28;;;;;;;12.73;9.27;;;16.40;99.90;;;;;;5053631;28;20036;-58
2023/10/11 01:53:54;;;;;;;13.27;8.57;;;16.40;99.90;;;;;;5054457;28;20105;-59
2023/10/11 01:56:23;;;;;;;17.60;9.20;;;16.40;99.90;;;;;;5056249;28;20453;-58
2023/10/11 01:58:53;;;;;;;14.93;9.82;;;16.40;99.90;;;;;;5053963;28;20041;-58
2023/10/11 02:01:23;;;;;;;14.73;8.90;;;16.30;99.90;;;;;;5054405;28;20037;-60
2023/10/11 02:03:56;;;;;;;16.85;9.77;;;16.40;99.90;;;;;;5055144;28;20082;-58
2023/10/11 02:06:23;;;;;;;14.30;8.40;;;16.30;99.90;;;;;;5053888;28;20154;-58
2023/10/11 02:08:52;;;;;;;20.13;9.05;;;16.30;99.90;;;;;;5056066;28;20040;-58
2023/10/11 02:11:26;;;;;;;13.07;8.98;;;16.30;99.90;;;;;;5054107;28;20432;-59
2023/10/11 02:13:57;;;;;;;17.60;10.38;;;16.30;99.90;;;;;;5056880;28;20048;-57
2023/10/11 02:16:23;;;;;;;24.20;10.82;;;16.30;99.90;;;;;;5050938;28;20124;-58
2023/10/11 02:18:52;;;;;;;13.52;9.20;;;16.30;99.90;;;;;;5054102;28;20060;-59
2023/10/11 02:21:20;;;;;;;19.10;8.82;;;16.30;99.90;;;;;;5053776;28;20566;-57
2023/10/11 02:23:46;;;;;;;14.18;9.45;;;16.30;99.90;;;;;;5055262;28;20115;-58
2023/10/11 02:26:14;;;;;;;13.75;8.70;;;16.30;99.90;;;;;;5053338;28;20136;-60
2023/10/11 02:28:45;;;;;;;18.02;9.52;;;16.30;99.90;;;;;;5050997;28;20337;-59
2023/10/11 02:31:14;;;;;;;12.05;8.23;;;16.20;99.90;;;;;;5058200;28;20388;-58
2023/10/11 02:33:40;;;;;;;14.90;9.82;;;16.30;99.90;;;;;;5054595;28;20116;-57
2023/10/11 02:36:10;;;;;;;18.33;8.68;;;16.20;99.90;;;;;;5056895;28;20037;-58
2023/10/11 02:38:47;;;;;;;17.55;8.65;;;16.20;99.90;;;;;;5052719;28;20045;-57
2023/10/11 02:41:20;;;;;;;;;;;16.10;99.90;;;;;;5061969;28;20040;-58
2023/10/11 02:43:49;;;;;;;17.10;9.15;;;16.10;99.90;;;;;;5063567;28;19917;-57
2023/10/11 02:46:16;;;;;;;16.25;9.15;;;16.10;99.90;;;;;;5057867;28;20039;-56
2023/10/11 02:48:46;;;;;;;14.00;9.43;;;16.00;99.90;;;;;;5059319;28;20068;-56
2023/10/11 02:51:16;;;;;;;16.25;9.00;;;16.00;99.90;;;;;;5058512;28;20418;-57
2023/10/11 02:53:43;;;;;;;16.75;9.88;;;16.00;99.90;;;;;;5061317;28;20507;-58
2023/10/11 02:56:10;;;;;;;15.77;9.70;;;15.90;99.90;;;;;;5057917;28;20045;-58
2023/10/11 02:58:39;;;;;;;14.60;9.60;;;15.90;99.90;;;;;;5055572;28;20041;-59
2023/10/11 03:01:14;;;;;;;15.32;8.13;;;15.90;99.90;;;;;;5059403;28;20040;-58
2023/10/11 03:03:43;;;;;;;17.30;8.82;;;15.90;99.90;;;;;;5056915;28;20433;-58
2023/10/11 03:06:09;;;;;;;19.95;9.80;;;15.80;99.90;;;;;;5058757;28;20047;-56
2023/10/11 03:08:37;;;;;;;20.70;9.63;;;15.80;99.90;;;;;;5057439;28;20313;-55
2023/10/11 03:11:15;;;;;;;14.32;9.38;;;15.70;99.90;;;;;;5059111;28;20046;-56
2023/10/11 03:13:41;;;;;;;18.60;10.13;;;15.70;99.90;;;;;;5056033;28;20045;-56
2023/10/11 03:16:13;;;;;;;;;;;15.70;99.90;;;;;;5059953;28;20067;-57
2023/10/11 03:18:40;;;;;;;13.70;9.90;;;15.70;99.90;;;;;;5056039;28;19924;-58
2023/10/11 03:21:17;;;;;;;17.17;9.57;;;15.60;99.90;;;;;;5056147;28;20117;-54
2023/10/11 03:23:48;;;;;;;13.20;9.30;;;15.70;99.90;;;;;;5056083;28;20037;-56
2023/10/11 03:26:31;;;;;;;19.85;9.85;;;15.60;99.90;;;;;;5056442;28;20048;-58
2023/10/11 03:29:04;;;;;;;10.88;8.93;;;15.60;99.90;;;;;;5058293;28;20051;-58
2023/10/11 03:31:31;;;;;;;18.20;10.30;;;15.60;99.90;;;;;;5052009;28;20044;-56
2023/10/11 03:34:14;;;;;;;18.60;9.68;;;15.60;99.90;;;;;;5059203;28;20060;-57
2023/10/11 03:36:55;;;;;;;16.73;9.00;;;15.60;99.90;;;;;;5055391;28;20037;-59
2023/10/11 03:39:39;;;;;;;17.60;9.00;;;15.60;99.90;;;;;;5054774;28;20123;-56
2023/10/11 03:42:06;;;;;;;18.67;9.70;;;15.50;99.90;;;;;;5053230;28;20036;-57
2023/10/11 03:44:36;;;;;;;23.45;9.93;;;15.50;99.90;;;;;;5056381;28;20443;-58
2023/10/11 03:47:06;;;;;;;15.65;8.95;;;15.50;99.90;;;;;;5053851;28;20032;-57
2023/10/11 03:49:37;;;;;;;18.80;8.98;;;15.40;99.90;;;;;;5058080;28;20037;-57
2023/10/11 03:52:04;;;;;;;12.57;8.10;;;15.40;99.90;;;;;;5057429;28;20111;-58
2023/10/11 03:54:30;;;;;;;15.35;8.85;;;15.40;99.90;;;;;;5057310;28;20040;-58
2023/10/11 03:56:56;;;;;;;18.75;9.70;;;15.40;99.90;;;;;;5057498;28;20045;-58
2023/10/11 03:59:26;;;;;;;12.80;8.32;;;15.30;99.90;;;;;;5055437;28;20464;-55
2023/10/11 04:01:53;;;;;;;12.75;8.15;;;15.30;99.90;;;;;;5057393;28;20037;-57
2023/10/11 04:04:20;;;;;;;15.52;8.20;;;15.30;99.90;;;;;;5057340;28;20056;-58
2023/10/11 04:06:51;;;;;;;15.82;8.70;;;15.20;99.90;;;;;;5058102;28;20140;-58
2023/10/11 04:09:22;;;;;;;16.00;8.40;;;15.20;99.90;;;;;;5057241;28;20126;-56
2023/10/11 04:11:54;;;;;;;15.68;8.90;;;15.20;99.90;;;;;;5058492;28;20438;-58
2023/10/11 04:14:24;;;;;;;19.00;8.60;;;15.20;99.90;;;;;;5059644;28;20041;-57
2023/10/11 04:16:52;;;;;;;12.48;8.73;;;15.20;99.90;;;;;;5057409;28;20044;-57
2023/10/11 04:19:21;;;;;;;16.30;9.13;;;15.20;99.90;;;;;;5053870;28;20131;-58
2023/10/11 04:24:19;;;;;;;12.48;7.57;;;15.10;99.90;;;;;;5057035;28;20045;-57
2023/10/11 04:26:53;;;;;;;14.25;8.35;;;15.10;99.90;;;;;;5054497;28;20516;-57
2023/10/11 04:29:22;;;;;;;17.77;9.27;;;15.20;99.90;;;;;;5056825;28;20119;-58
2023/10/11 04:34:32;;;;;;;24.60;9.50;;;15.10;99.90;;;;;;5057019;28;20128;-58
2023/10/11 04:37:13;;;;;;;13.93;8.80;;;15.10;99.90;;;;;;5056707;28;20045;-57
2023/10/11 04:39:50;;;;;;;18.55;10.63;;;15.20;99.90;;;;;;5055366;28;20040;-57
2023/10/11 04:42:19;;;;;;;23.05;8.52;;;15.20;99.90;;;;;;5052625;28;20033;-58
2023/10/11 04:44:54;;;;;;;18.65;9.15;;;15.10;99.90;;;;;;5055672;28;20048;-57
2023/10/11 04:47:19;;;;;;;15.35;9.05;;;15.10;99.90;;;;;;5053819;28;20102;-56
2023/10/11 04:49:45;;;;;;;14.55;8.88;;;15.10;99.90;;;;;;5056022;28;20041;-57
2023/10/11 04:52:15;;;;;;;13.82;9.38;;;15.20;99.90;;;;;;5055708;28;20067;-58
2023/10/11 04:54:53;;;;;;;15.30;9.65;;;15.10;99.90;;;;;;5058420;28;20120;-57
2023/10/11 04:57:24;;;;;;;18.35;9.57;;;15.20;99.90;;;;;;5053051;28;20342;-58
2023/10/11 04:59:53;;;;;;;15.73;9.20;;;15.10;99.90;;;;;;5054788;28;20037;-58
2023/10/11 05:02:32;;;;;;;20.17;10.85;;;15.20;99.90;;;;;;5053087;28;20052;-55
2023/10/11 05:04:59;;;;;;;20.20;10.10;;;15.20;99.90;;;;;;5055361;28;20032;-57
2023/10/11 05:07:25;;;;;;;16.48;10.45;;;15.10;99.90;;;;;;5056108;28;20548;-56
2023/10/11 05:10:22;;;;;;;17.95;10.25;;;15.20;99.90;;;;;;5055999;28;20040;-58
2023/10/11 05:12:44;;;;;;;16.58;9.73;;;15.20;99.90;;;;;;5059551;28;20051;-57
2023/10/11 05:15:10;;;;;;;16.23;10.60;;;15.20;99.90;;;;;;5057577;28;20071;-57
2023/10/11 05:17:39;;;;;;;14.95;10.50;;;15.20;99.90;;;;;;5058720;28;20061;-54
2023/10/11 05:22:49;;;;;;;14.30;10.40;;;15.30;99.90;;;;;;5053914;28;20045;-53
2023/10/11 05:27:51;;;;;;;23.73;11.70;;;15.20;99.90;;;;;;5057358;28;20440;-53
2023/10/11 05:30:28;;;;;;;18.27;10.02;;;15.20;99.90;;;;;;5056124;28;20469;-53
2023/10/11 05:32:58;;;;;;;21.08;10.77;;;15.20;99.90;;;;;;5050128;28;20041;-57
2023/10/11 05:51:33;;;;;;;25.70;12.02;;;15.10;99.90;;;;;;5052591;28;20044;-55
2023/10/11 05:54:02;;;;;;;22.00;11.85;;;15.10;99.90;;;;;;5055870;28;20510;-58
2023/10/11 05:56:33;;;;;;;22.30;12.25;;;15.10;99.90;;;;;;5056055;28;20033;-57
2023/10/11 05:59:04;;;;;;;25.92;12.02;;;15.10;99.90;;;;;;5055210;28;20051;-56
2023/10/11 06:01:30;;;;;;;14.88;11.27;;;15.10;99.90;;;;;;5051986;28;20045;-56
2023/10/11 06:03:57;;;;;;;23.88;11.93;;;15.00;99.90;;;;;;5052143;28;20029;-58
2023/10/11 06:06:23;;;;;;;18.52;11.93;;;15.00;99.90;;;;;;5053588;28;20055;-59
2023/10/11 06:08:53;;;;;;;19.05;12.68;;;15.00;99.90;;;;;;5054546;28;20076;-56
2023/10/11 06:11:19;;;;;;;20.75;11.52;;;15.00;99.90;;;;;;5054886;28;20600;-55
2023/10/11 06:13:50;;;;;;;23.10;12.40;;;15.00;99.90;;;;;;5059956;28;20048;-54
2023/10/11 06:16:16;;;;;;;23.77;12.57;;;15.00;99.90;;;;;;5057348;28;20473;-56
2023/10/11 06:18:57;;;;;;;22.65;11.80;;;15.00;99.90;;;;;;5057151;28;20060;-57
2023/10/11 06:21:30;;;;;;;21.85;12.40;;;15.00;99.90;;;;;;5058365;28;20066;-55
2023/10/11 06:24:00;;;;;;;20.75;12.68;;;15.10;99.90;;;;;;5060968;28;20060;-54
2023/10/11 06:26:29;;;;;;;20.27;11.40;;;15.10;99.90;;;;;;5058198;28;20483;-58
2023/10/11 06:29:03;;;;;;;23.67;12.98;;;15.20;99.90;;;;;;5058205;28;20381;-57
2023/10/11 06:31:43;;;;;;;23.67;13.20;;;15.20;99.90;;;;;;5057542;28;20028;-56
2023/10/11 06:34:15;;;;;;;20.65;13.05;;;15.20;99.90;;;;;;5062070;28;20502;-56
2023/10/11 06:36:50;;;;;;;27.38;13.52;;;15.20;99.90;;;;;;5062850;28;20029;-57
2023/10/11 06:42:12;;;;;;;20.05;12.50;;;15.20;99.90;;;;;;5056713;28;20037;-56
2023/10/11 06:44:41;;;;;;;18.52;12.65;;;15.20;99.90;;;;;;5057807;28;20037;-55
2023/10/11 06:47:10;;;;;;;17.13;12.10;;;15.20;99.90;;;;;;5059145;28;20423;-58
2023/10/11 06:49:47;;;;;;;23.75;13.20;;;15.20;99.90;;;;;;5058480;28;20098;-56
2023/10/11 06:52:19;;;;;;;22.67;13.23;;;15.20;99.90;;;;;;5059031;28;20044;-58
2023/10/11 06:54:47;;;;;;;21.60;13.60;;;15.20;99.90;;;;;;5058920;28;20045;-59
2023/10/11 06:57:19;;;;;;;22.33;12.30;;;15.30;99.90;;;;;;5052616;28;20506;-56
2023/10/11 06:59:49;;;;;;;25.13;13.07;;;15.40;99.90;;;;;;5045995;28;20515;-59
2023/10/11 07:02:31;;;;;;;21.35;13.57;;;15.60;99.90;;;;;;5048532;28;20047;-57
2023/10/11 07:05:08;;;;;;;21.80;13.98;;;15.70;99.90;;;;;;5051124;28;20040;-53
2023/10/11 07:07:34;;;;;;;23.10;13.15;;;15.70;99.90;;;;;;5056773;28;20416;-56
2023/10/11 07:10:04;;;;;;;25.75;12.68;;;15.80;99.90;;;;;;5058192;28;20123;-56
2023/10/11 07:12:39;;;;;;;23.75;13.85;;;15.80;99.90;;;;;;5054095;28;20132;-58
2023/10/11 07:15:09;;;;;;;26.50;15.02;;;15.80;99.90;;;;;;5059287;28;20553;-55
2023/10/11 07:17:36;;;;;;;25.52;14.48;;;15.80;99.90;;;;;;5055663;28;20334;-58
2023/10/11 07:20:02;;;;;;;;;;;15.90;99.90;;;;;;5050989;28;20025;-60
2023/10/11 07:22:39;;;;;;;25.88;14.65;;;15.80;99.90;;;;;;5056558;28;20350;-56
2023/10/11 07:25:36;;;;;;;24.90;14.73;;;15.80;99.90;;;;;;5056973;28;20075;-57
2023/10/11 07:27:53;;;;;;;26.88;15.02;;;15.90;99.90;;;;;;5052246;28;20060;-57
2023/10/11 07:30:19;;;;;;;28.08;17.02;;;15.90;99.90;;;;;;5049656;28;20067;-57
2023/10/11 07:32:45;;;;;;;24.52;15.63;;;15.90;99.90;;;;;;5051752;28;20523;-58
2023/10/11 07:35:27;;;;;;;23.00;16.05;;;15.90;99.90;;;;;;5056768;28;20146;-56
2023/10/11 07:37:53;;;;;;;29.42;16.85;;;15.90;99.90;;;;;;5053366;28;20044;-58
2023/10/11 07:40:31;;;;;;;29.67;17.10;;;15.90;99.90;;;;;;5051107;28;20132;-54
2023/10/11 07:42:57;;;;;;;23.40;16.70;;;15.90;99.90;;;;;;5054425;28;20055;-57
2023/10/11 07:45:26;;;;;;;26.55;17.55;;;15.90;99.90;;;;;;5050528;28;20033;-56
2023/10/11 07:47:52;;;;;;;26.08;18.42;;;15.90;99.90;;;;;;5053717;28;20037;-59
2023/10/11 07:50:25;;;;;;;34.20;19.23;;;15.90;99.90;;;;;;5054928;28;20033;-58
2023/10/11 07:52:51;;;;;;;30.77;18.02;;;16.00;99.90;;;;;;5052436;28;20052;-57
2023/10/11 07:55:17;;;;;;;34.22;18.80;;;15.90;99.90;;;;;;5058832;28;20090;-56
2023/10/11 07:57:46;;;;;;;;;;;16.00;99.90;;;;;;5058600;28;20045;-56
2023/10/11 08:00:18;;;;;;;33.88;19.50;;;16.00;99.90;;;;;;5055830;28;19956;-57
2023/10/11 08:03:03;;;;;;;31.33;19.83;;;16.00;99.90;;;;;;5060826;28;20291;-53
2023/10/11 08:05:30;;;;;;;33.00;19.85;;;16.00;99.90;;;;;;5059626;28;20043;-58
2023/10/11 08:07:55;;;;;;;31.85;20.98;;;16.10;99.90;;;;;;5051283;28;20029;-54
2023/10/11 08:10:34;;;;;;;34.95;20.98;;;16.10;99.90;;;;;;5055223;28;20089;-56
2023/10/11 08:13:02;;;;;;;35.65;20.20;;;16.10;99.90;;;;;;5056857;28;20075;-58
2023/10/11 08:15:28;;;;;;;34.50;21.33;;;16.20;99.90;;;;;;5050955;28;20029;-57
2023/10/11 08:17:54;;;;;;;37.90;23.27;;;16.20;99.90;;;;;;5055637;28;20033;-58
2023/10/11 08:20:19;;;;;;;39.05;22.73;;;16.20;99.90;;;;;;5055266;28;20071;-58
2023/10/11 08:22:47;;;;;;;38.33;23.85;;;16.20;99.90;;;;;;5059755;28;20453;-58
2023/10/11 08:25:14;;;;;;;37.25;23.38;;;16.20;99.90;;;;;;5057126;28;20419;-58
2023/10/11 08:27:41;;;;;;;42.83;23.85;;;16.20;99.90;;;;;;5059721;28;20509;-58
2023/10/11 08:30:17;;;;;;;48.28;23.73;;;16.30;99.90;;;;;;5061548;28;20067;-58
2023/10/11 08:32:46;;;;;;;43.97;26.23;;;16.30;99.90;;;;;;5058214;28;20052;-57
2023/10/11 08:35:16;;;;;;;41.42;24.90;;;16.30;99.90;;;;;;5053203;28;20099;-58
2023/10/11 08:37:41;;;;;;;39.40;25.33;;;16.30;99.90;;;;;;5055070;28;20044;-58
2023/10/11 08:40:29;;;;;;;50.85;25.98;;;16.30;99.90;;;;;;5054709;28;20419;-57
2023/10/11 08:42:59;;;;;;;49.95;27.13;;;16.30;99.90;;;;;;5055554;28;20408;-59
2023/10/11 08:45:41;;;;;;;51.95;26.60;;;16.30;99.90;;;;;;5055755;28;20438;-58
2023/10/11 08:48:08;;;;;;;44.03;26.33;;;16.30;99.90;;;;;;5057683;28;20040;-57
2023/10/11 08:50:35;;;;;;;46.42;26.95;;;16.40;99.90;;;;;;5055650;28;20393;-58
2023/10/11 08:53:08;;;;;;;44.25;28.13;;;16.40;99.90;;;;;;5059662;28;20545;-58
2023/10/11 08:55:39;;;;;;;46.42;27.00;;;16.40;99.90;;;;;;5060806;28;20038;-59
2023/10/11 08:58:06;;;;;;;50.90;28.13;;;16.40;99.90;;;;;;5058535;28;20041;-56
2023/10/11 09:00:34;;;;;;;42.78;24.27;;;16.50;99.90;;;;;;5057723;28;20035;-58
2023/10/11 09:03:17;;;;;;;51.33;27.63;;;16.50;99.90;;;;;;5054266;28;20048;-58
2023/10/11 09:05:43;;;;;;;52.00;28.05;;;16.50;99.90;;;;;;5056378;28;20116;-58
2023/10/11 09:08:31;;;;;;;51.85;26.73;;;16.60;99.90;;;;;;5054071;28;20108;-56
2023/10/11 09:11:28;;;;;;;44.92;27.33;;;16.60;99.90;;;;;;5056504;28;20059;-58
2023/10/11 09:13:53;;;;;;;48.42;27.83;;;16.60;99.90;;;;;;5057852;28;20051;-57
2023/10/11 09:16:37;;;;;;;;;;;16.60;99.90;;;;;;5058621;28;20033;-58
2023/10/11 09:19:09;;;;;;;49.38;27.45;;;16.60;99.90;;;;;;5060463;28;19923;-57
2023/10/11 09:21:35;;;;;;;52.05;29.17;;;16.60;99.90;;;;;;5053006;28;20075;-57
2023/10/11 09:24:01;;;;;;;;;;;16.60;99.90;;;;;;5052494;28;20393;-57
2023/10/11 09:26:34;;;;;;;47.60;26.88;;;16.60;99.90;;;;;;5052385;28;19999;-58
2023/10/11 09:29:03;;;;;;;47.35;28.83;;;16.60;99.90;;;;;;5049083;28;20091;-57
2023/10/11 09:31:32;;;;;;;50.38;27.92;;;16.60;99.90;;;;;;5050862;28;20037;-59
2023/10/11 09:34:07;;;;;;;42.58;28.25;;;16.60;99.90;;;;;;5044052;28;20537;-56
2023/10/11 09:36:33;;;;;;;50.63;28.58;;;16.60;99.90;;;;;;5045769;28;20042;-57
2023/10/11 09:39:02;;;;;;;55.92;26.95;;;16.60;99.90;;;;;;5042413;28;20028;-56
2023/10/11 09:41:41;;;;;;;49.97;28.27;;;16.60;99.90;;;;;;5047189;28;20040;-57
2023/10/11 09:44:11;;;;;;;52.20;28.88;;;16.60;99.90;;;;;;5047300;28;20171;-55
2023/10/11 09:46:37;;;;;;;43.45;28.88;;;16.60;99.90;;;;;;5049377;28;20045;-58
2023/10/11 09:49:12;;;;;;;44.65;29.08;;;16.60;99.90;;;;;;5050881;28;20037;-55
2023/10/11 09:51:41;;;;;;;42.35;27.30;;;16.60;99.90;;;;;;5051859;28;20225;-57
2023/10/11 09:54:12;;;;;;;46.38;27.63;;;16.60;99.90;;;;;;5052299;28;20037;-56
2023/10/11 09:56:41;;;;;;;49.40;27.58;;;16.60;99.90;;;;;;5053582;28;20431;-58
2023/10/11 09:59:22;;;;;;;46.63;27.52;;;16.60;99.90;;;;;;5046110;28;20044;-58
2023/10/11 10:02:12;;;;;;;42.97;28.50;;;16.60;99.90;;;;;;5051504;28;20052;-58
2023/10/11 10:04:50;;;;;;;44.50;26.95;;;16.60;99.90;;;;;;5052040;28;20064;-56
2023/10/11 10:07:25;;;;;;;42.40;27.45;;;16.70;99.90;;;;;;5051142;28;20426;-58
2023/10/11 10:10:00;;;;;;;45.95;28.27;;;16.70;99.90;;;;;;5051038;28;20033;-58
2023/10/11 10:12:32;;;;;;;45.05;28.77;;;16.70;99.90;;;;;;5051178;28;20558;-58
2023/10/11 10:15:50;;;;;;;45.25;29.33;;;16.70;99.90;;;;;;5052693;28;20101;-58
2023/10/11 10:18:12;;;;;;;50.75;28.25;;;16.70;99.90;;;;;;5050621;28;20045;-59
2023/10/11 10:20:42;;;;;;;46.25;27.95;;;16.70;99.90;;;;;;5048157;28;20033;-58
2023/10/11 10:23:16;;;;;;;48.70;29.25;;;16.70;99.90;;;;;;5051029;28;20120;-57
2023/10/11 10:25:46;;;;;;;51.85;28.55;;;16.70;99.90;;;;;;5050792;28;20040;-58
2023/10/11 10:28:37;;;;;;;50.83;30.02;;;16.70;99.90;;;;;;5052108;28;20071;-58
2023/10/11 10:31:11;;;;;;;53.13;29.20;;;16.60;99.90;;;;;;5051528;28;20037;-59
2023/10/11 10:33:38;;;;;;;50.60;27.90;;;16.60;99.90;;;;;;5051061;28;20060;-58
2023/10/11 10:36:21;;;;;;;45.88;29.65;;;16.70;99.90;;;;;;5049452;28;20045;-58
2023/10/11 10:41:39;;;;;;;49.20;30.20;;;16.70;99.90;;;;;;5049574;28;20037;-59
2023/10/11 10:44:09;;;;;;;54.53;29.38;;;16.70;99.90;;;;;;5047774;28;20062;-56
2023/10/11 10:46:37;;;;;;;49.05;29.58;;;16.70;99.90;;;;;;5049013;28;20048;-58
2023/10/11 10:49:03;;;;;;;45.85;27.73;;;16.70;99.90;;;;;;5052007;28;20491;-58
2023/10/11 10:51:35;;;;;;;48.53;28.65;;;16.80;99.90;;;;;;5051797;28;20041;-59
2023/10/11 10:54:12;;;;;;;47.33;27.80;;;16.90;99.90;;;;;;5050525;28;20045;-58
2023/10/11 10:56:40;;;;;;;38.72;25.35;;;17.00;99.90;;;;;;5050821;28;20075;-58
2023/10/11 10:59:08;;;;;;;41.33;25.75;;;17.00;99.90;;;;;;5050696;28;20037;-59
2023/10/11 11:01:34;;;;;;;41.85;26.15;;;17.20;99.90;;;;;;5051690;28;20506;-59
2023/10/11 11:04:07;;;;;;;39.38;27.67;;;17.20;99.90;;;;;;5052702;28;20119;-59
2023/10/11 11:06:46;;;;;;;44.20;26.52;;;17.40;99.90;;;;;;5046384;28;20037;-58
2023/10/11 11:09:19;;;;;;;39.17;24.17;;;17.50;99.90;;;;;;5052258;28;20112;-57
2023/10/11 11:11:54;;;;;;;43.55;24.50;;;17.60;99.90;;;;;;5051500;28;20044;-59
2023/10/11 11:14:23;;;;;;;42.70;21.65;;;17.60;99.90;;;;;;5045662;28;20060;-58
2023/10/11 11:16:59;;;;;;;38.50;23.45;;;17.70;99.90;;;;;;5049148;28;20134;-59
2023/10/11 11:19:34;;;;;;;39.65;22.77;;;17.70;99.90;;;;;;5052137;28;20044;-59
2023/10/11 11:22:13;;;;;;;34.50;22.25;;;17.60;99.90;;;;;;5048430;28;20040;-59
2023/10/11 11:24:41;;;;;;;36.08;21.40;;;17.60;99.90;;;;;;5048634;28;20108;-59
2023/10/11 11:27:27;;;;;;;36.53;20.70;;;17.60;99.90;;;;;;5043874;28;20047;-58
2023/10/11 11:29:53;;;;;;;36.10;22.02;;;17.60;99.90;;;;;;5049800;28;20073;-59
2023/10/11 11:32:38;;;;;;;42.67;24.02;;;17.70;99.90;;;;;;5049297;28;20052;-58
2023/10/11 11:35:28;;;;;;;36.70;23.27;;;17.80;99.90;;;;;;5053031;28;20087;-57
2023/10/11 11:38:02;;;;;;;39.30;22.35;;;17.90;99.90;;;;;;5050681;28;20435;-59
2023/10/11 11:40:36;;;;;;;33.97;20.75;;;18.00;99.90;;;;;;5032559;28;20126;-57
2023/10/11 11:43:05;;;;;;;39.22;20.92;;;18.10;99.90;;;;;;5048867;28;20104;-58
2023/10/11 11:45:35;;;;;;;34.33;19.50;;;18.20;99.90;;;;;;5051220;28;20037;-57
2023/10/11 11:48:05;;;;;;;35.38;19.88;;;18.20;99.90;;;;;;5048180;28;20037;-59
2023/10/11 11:50:33;;;;;;;33.92;21.42;;;18.30;99.90;;;;;;5048369;28;21318;-59
2023/10/11 11:53:03;;;;;;;29.85;19.42;;;18.30;99.90;;;;;;5051711;28;20109;-59
2023/10/11 11:55:29;;;;;;;32.03;19.42;;;18.30;99.90;;;;;;5051588;28;20025;-59
2023/10/11 11:57:55;;;;;;;30.40;18.83;;;18.30;99.90;;;;;;5052689;28;20108;-57
2023/10/11 12:02:53;;;;;;;32.30;15.98;;;18.30;99.90;;;;;;5065586;28;19925;-58
2023/10/11 12:05:19;;;;;;;23.08;13.77;;;18.20;99.90;;;;;;5062717;28;20037;-58
2023/10/11 12:07:46;;;;;;;27.00;13.18;;;18.30;99.90;;;;;;5056961;28;20409;-57
2023/10/11 12:10:23;;;;;;;25.08;12.77;;;18.30;99.90;;;;;;5053196;28;20385;-57
2023/10/11 12:13:05;;;;;;;27.40;13.80;;;18.40;99.90;;;;;;5058022;28;20040;-56
2023/10/11 12:15:34;;;;;;;22.17;12.77;;;18.40;99.90;;;;;;5059471;28;20060;-59
2023/10/11 12:18:05;;;;;;;19.20;13.00;;;18.50;99.90;;;;;;5054649;28;20047;-59
2023/10/11 12:20:36;;;;;;;17.88;12.05;;;18.50;99.90;;;;;;5046367;28;20120;-58
2023/10/11 12:23:07;;;;;;;22.65;13.77;;;18.60;99.90;;;;;;5059579;28;20051;-59
2023/10/11 12:25:37;;;;;;;20.52;14.73;;;18.60;99.90;;;;;;5063138;28;20060;-59
2023/10/11 12:28:04;;;;;;;30.13;14.30;;;18.70;99.90;;;;;;5058437;28;20121;-58
2023/10/11 12:30:33;;;;;;;29.70;14.60;;;18.70;99.90;;;;;;5051157;28;20036;-58
2023/10/11 12:33:07;;;;;;;23.13;13.18;;;18.70;99.90;;;;;;5080762;28;20413;-59
2023/10/11 12:35:39;;;;;;;32.65;14.40;;;18.70;99.90;;;;;;5070906;28;20473;-59
2023/10/11 12:38:06;;;;;;;23.42;14.60;;;18.70;99.90;;;;;;5070796;28;20029;-59
2023/10/11 12:40:34;;;;;;;29.17;14.35;;;18.70;99.90;;;;;;5068153;28;20044;-59
2023/10/11 12:43:02;;;;;;;19.92;12.50;;;18.80;99.90;;;;;;5071460;28;20067;-59
2023/10/11 12:45:28;;;;;;;23.55;12.60;;;18.90;99.90;;;;;;5074113;28;20048;-59
2023/10/11 12:47:53;;;;;;;23.25;12.35;;;19.10;99.90;;;;;;5084721;28;20044;-58
2023/10/11 12:50:20;;;;;;;21.80;12.27;;;19.30;99.90;;;;;;5085224;28;20075;-59
2023/10/11 12:52:52;;;;;;;20.42;12.45;;;19.50;99.90;;;;;;5076214;28;20032;-58
2023/10/11 12:55:20;;;;;;;19.15;10.48;;;19.70;99.90;;;;;;5075117;28;20037;-59
2023/10/11 12:57:48;;;;;;;18.30;9.25;;;19.90;99.90;;;;;;5076719;28;20550;-59
2023/10/11 13:00:31;;;;;;;23.35;11.27;;;19.90;99.90;;;;;;5074108;28;20060;-59
2023/10/11 13:03:13;;;;;;;15.70;10.05;;;20.00;99.90;;;;;;5077986;28;20098;-59
2023/10/11 13:05:39;;;;;;;16.35;10.15;;;20.10;99.90;;;;;;5073974;28;20120;-59
2023/10/11 13:08:04;;;;;;;23.00;10.10;;;20.20;99.90;;;;;;5074236;28;20037;-59
2023/10/11 13:10:30;;;;;;;;;;;20.20;99.90;;;;;;5073473;28;20033;-59
2023/10/11 13:12:56;;;;;;;18.48;10.02;;;20.30;99.90;;;;;;5076273;28;20417;-59
2023/10/11 13:15:22;;;;;;;21.70;10.35;;;20.40;99.90;;;;;;5074698;28;20039;-59
2023/10/11 13:17:49;;;;;;;19.15;10.02;;;20.40;99.90;;;;;;5076240;28;20672;-59
2023/10/11 13:20:20;;;;;;;18.63;9.00;;;20.40;99.90;;;;;;5075770;28;20064;-59
2023/10/11 13:22:48;;;;;;;17.10;8.90;;;20.40;99.90;;;;;;5072973;28;20044;-59
2023/10/11 13:25:24;;;;;;;14.52;9.48;;;20.30;99.90;;;;;;5069280;28;20115;-59
2023/10/11 13:27:56;;;;;;;17.42;10.77;;;20.30;99.90;;;;;;5066204;28;20048;-59